METAR Data
IDs: Format: Raw Decoded Include TAF

Data at: 2313 UTC 25 Oct 2021

KGLS 252252Z AUTO 16007KT 10SM CLR 29/24 A2993 RMK AO2 SLP133 T02890239
KGLS 252152Z 16008KT 10SM CLR 29/24 A2993 RMK AO2 SLP134 T02940239
KGLS 252052Z 17007KT 10SM CLR 30/23 A2993 RMK AO2 SLP133 T03000233 56014
KGLS 251952Z 18008KT 10SM CLR 30/24 A2994 RMK AO2 SLP137 T03000239
KGLS 251852Z 20007KT 10SM FEW018 FEW024 SCT029 29/24 A2995 RMK AO2 SLP141 T02940239
KGLS 251821Z 20005KT 10SM FEW023 FEW032 29/24 A2995 RMK AO2 T02940244
KGLS 251752Z VRB03KT 10SM BKN015 BKN022 29/24 A2997 RMK AO2 SLP147 T02890239 10306 20244 56007
KGLS 251749Z VRB04KT 10SM BKN015 BKN022 29/24 A2997 RMK AO2
KGLS 251710Z 29006KT 10SM SCT016 BKN042 30/24 A2998 RMK AO2 T03000239
KGLS 251652Z 27005KT 10SM BKN016 OVC026 29/24 A2998 RMK AO2 SLP152 T02890239
KGLS 251634Z 19005KT 10SM FEW016 BKN027 BKN032 29/24 A2998 RMK AO2 T02940239
KGLS 251552Z 21007KT 10SM FEW016 FEW021 SCT028 29/24 A2999 RMK AO2 SLP154 T02890239
KGLS 251548Z 23005KT 10SM SCT016 SCT021 SCT028 29/24 A2999 RMK AO2
KGLS 251502Z 19004KT 10SM FEW009 BKN022 28/26 A2999 RMK AO2 T02780261
KGLS 251452Z 22003KT 10SM FEW018 28/24 A2999 RMK AO2 SLP154 T02780244 51020
KGLS 251438Z VRB04KT 10SM FEW007 28/24 A2999 RMK AO2 T02780244
KGLS 251414Z 23004KT 10SM FEW013 27/24 A2998 RMK AO2 T02720244
KGLS 251352Z 00000KT 10SM BKN015 BKN023 OVC031 27/25 A2998 RMK AO2 SLP151 T02670250
KGLS 251335Z 00000KT 10SM SCT013 BKN018 27/25 A2997 RMK AO2 T02670250
KGLS 251306Z 00000KT 8SM CLR 26/24 A2996 RMK AO2 T02560239
KGLS 251259Z 17003KT 2SM BR CLR 25/24 A2995 RMK AO2 T02500239
KGLS 251252Z 17003KT 4SM BR CLR 25/23 A2995 RMK AO2 SLP141 T02500233
KGLS 251237Z 17003KT 4SM BR FEW016 25/23 A2995 RMK AO2 T02500233
KGLS 251210Z 00000KT 3/4SM BR VV015 26/24 A2993 RMK AO2 T02560239
KGLS 251152Z 17003KT 1 1/2SM BR FEW015 26/23 A2993 RMK AO2 SLP134 T02560233 10267 20244 53006
KGLS 251135Z 00000KT 1 3/4SM BR CLR 25/23 A2992 RMK AO2 VIS 3/4V5 T02500233
KGLS 251052Z 17003KT 9SM CLR 24/23 A2991 RMK AO2 SLP129 T02440228
KGLS 251042Z 17003KT 8SM CLR 25/23 A2991 RMK AO2 T02500233 $
KGLS 251032Z AUTO 00000KT 2SM BR CLR 26/23 A2991 RMK AO2 T02560233 $
KGLS 250952Z AUTO 00000KT 9SM CLR 26/24 A2991 RMK AO2 SLP127 T02560239 $
KGLS 250852Z AUTO 21003KT 10SM CLR 26/24 A2991 RMK AO2 SLP128 T02610239 50004 $
KGLS 250752Z AUTO 21003KT 10SM CLR 26/24 A2992 RMK AO2 SLP130 T02610239 $
KGLS 250652Z AUTO 19005KT 10SM CLR 27/24 A2991 RMK AO2 SLP128 T02670239 $
KGLS 250552Z AUTO 18009KT 10SM CLR 27/24 A2990 RMK AO2 SLP124 T02670239 10267 20261 402940250 50006 $
KGLS 250452Z AUTO 16005KT 10SM CLR 26/23 A2991 RMK AO2 SLP127 T02610233 $
KGLS 250352Z AUTO 16005KT 10SM CLR 26/23 A2989 RMK AO2 SLP123 T02610233 $
KGLS 250252Z AUTO 15007KT 10SM CLR 27/23 A2988 RMK AO2 SLP118 T02670233 53011 $
KGLS 250152Z AUTO 13008KT 10SM CLR 27/23 A2987 RMK AO2 SLP113 T02670233 $
KGLS 250052Z AUTO 13006KT 10SM CLR 27/23 A2986 RMK AO2 SLP111 T02670228 $
KGLS 242352Z AUTO 12007KT 10SM CLR 27/23 A2985 RMK AO2 SLP107 T02720228 10294 20267 53006 $
KGLS 242252Z AUTO 11008KT 10SM CLR 28/23 A2983 RMK AO2 SLP102 T02780228 $
KGLS 242152Z 16004KT 10SM CLR 29/23 A2984 RMK AO2 SLP103 T02890228 $
KGLS 242052Z 20006KT 10SM CLR 29/22 A2983 RMK AO2 SLP100 T02940222 56018 $
KGLS 241952Z 17006KT 10SM CLR 29/23 A2984 RMK AO2 SLP103 T02890228 $
KGLS 241852Z 16011KT 10SM CLR 29/23 A2985 RMK AO2 SLP109 T02890228 $
KGLS 241752Z 15012KT 10SM CLR 28/22 A2988 RMK AO2 SLP119 60000 T02830222 10283 20250 58003 $
KGLS 241652Z 15013KT 10SM BKN080 OVC110 27/23 A2991 RMK AO2 SLP127 T02670228 $
KGLS 241622Z 14012KT 10SM FEW009 BKN034 OVC080 27/23 A2991 RMK AO2 T02670228 $
KGLS 241552Z 16008KT 10SM OVC075 26/22 A2991 RMK AO2 RAB14E34 SLP128 P0000 T02610222 $
KGLS 241524Z 16014KT 10SM -RA SCT018 OVC075 27/23 A2990 RMK AO2 RAB14 P0000 T02670233 $
KGLS 241515Z 14013KT 10SM -RA SCT018 BKN025 BKN080 27/23 A2990 RMK AO2 RAB14 P0000 T02670228 $
KGLS 241452Z 13016KT 10SM FEW012 SCT028 27/23 A2989 RMK AO2 SLP121 T02670228 53011 $
KGLS 241352Z 13015KT 10SM BKN075 BKN090 26/22 A2987 RMK AO2 SLP115 T02560217 $
KGLS 241252Z 12017G22KT 10SM CLR 26/21 A2985 RMK AO2 LTG DSNT S SLP108 T02560211 $
KGLS 241152Z 12014KT 10SM CLR 26/22 A2986 RMK AO2 SLP110 70141 T02560217 10261 20250 55000 $